Time;durP1;ratioP1;P1;durP2;ratioP2;P2;SDS_P1;SDS_P2;PMS_P1;PMS_P2;Temp;Humidity;BMP_temperature;BMP_pressure;BME280_temperature;BME280_humidity;BME280_pressure;Samples;Min_cycle;Max_cycle;Signal;HPM_P1;HPM_P2
2022/10/03 00:02:37;;;;;;;9.32;2.90;;;;;;;13.41;69.80;100131.59;4992743;28;100230;-91
2022/10/03 00:05:23;;;;;;;9.57;2.72;;;;;;;13.48;69.31;100140.94;5009109;28;98192;-92
2022/10/03 00:08:01;;;;;;;6.82;2.10;;;;;;;13.53;69.56;100146.84;5006960;28;96920;-92
2022/10/03 00:10:41;;;;;;;10.00;2.10;;;;;;;13.51;69.64;100146.91;4997976;27;96811;-92
2022/10/03 00:13:22;;;;;;;7.43;2.13;;;;;;;13.42;69.00;100128.06;4985255;28;100100;-92
2022/10/03 00:16:06;;;;;;;16.98;2.40;;;;;;;13.54;69.52;100146.75;4982090;28;101496;-92
2022/10/03 00:18:45;;;;;;;5.65;1.98;;;;;;;13.54;69.67;100143.28;4998749;28;97214;-92
2022/10/03 00:21:20;;;;;;;7.22;2.55;;;;;;;13.54;69.08;100135.38;4984179;28;96683;-93
2022/10/03 00:24:04;;;;;;;6.05;1.73;;;;;;;13.52;69.38;100139.84;4998392;28;100426;-93
2022/10/03 00:26:33;;;;;;;5.38;1.90;;;;;;;13.55;69.14;100137.91;4992352;28;101602;-93
2022/10/03 00:29:01;;;;;;;7.32;2.25;;;;;;;13.57;69.75;100143.13;4995422;28;97789;-93
2022/10/03 00:32:12;;;;;;;6.57;2.15;;;;;;;13.57;69.09;100143.13;5009761;28;96688;-92
2022/10/03 00:34:54;;;;;;;7.97;2.15;;;;;;;13.51;69.53;100148.69;4986997;28;100562;-92
2022/10/03 00:37:28;;;;;;;7.65;2.10;;;;;;;13.53;69.42;100145.06;4992310;28;97923;-92
2022/10/03 00:40:14;;;;;;;9.68;2.05;;;;;;;13.48;69.29;100152.34;4990605;28;96904;-92
2022/10/03 00:42:40;;;;;;;6.38;2.15;;;;;;;13.47;69.09;100152.44;4984128;28;97176;-92
2022/10/03 00:45:43;;;;;;;6.55;1.58;;;;;;;13.45;69.46;100149.84;4991100;28;101334;-92
2022/10/03 00:48:23;;;;;;;10.55;2.20;;;;;;;13.42;68.92;100151.78;5011291;28;97683;-90
2022/10/03 00:51:01;;;;;;;10.48;2.38;;;;;;;13.38;69.14;100151.09;5024130;27;96714;-92
2022/10/03 00:53:36;;;;;;;6.47;1.70;;;;;;;13.39;69.20;100157.22;4992697;28;96752;-92
2022/10/03 00:56:23;;;;;;;6.80;2.53;;;;;;;13.26;69.52;100128.78;5002348;28;101443;-92
2022/10/03 00:59:22;;;;;;;8.48;2.13;;;;;;;13.37;69.35;100146.72;5005172;28;97416;-92
2022/10/03 01:01:49;;;;;;;12.07;2.60;;;;;;;13.22;69.25;100126.34;4996500;28;97713;-91
2022/10/03 01:04:14;;;;;;;8.75;1.95;;;;;;;13.34;68.83;100150.38;4993859;28;96909;-89
2022/10/03 01:06:58;;;;;;;11.18;2.60;;;;;;;13.26;69.42;100141.97;5013625;28;100908;-91
2022/10/03 01:10:02;;;;;;;12.32;2.50;;;;;;;13.16;69.10;100129.28;4994459;27;101315;-92
2022/10/03 01:12:49;;;;;;;10.25;2.75;;;;;;;13.26;69.46;100147.22;4985206;27;96899;-91
2022/10/03 01:15:30;;;;;;;10.40;2.80;;;;;;;13.24;69.65;100143.81;5005580;28;96778;-92
2022/10/03 01:18:12;;;;;;;9.48;2.83;;;;;;;13.23;69.34;100139.44;4981847;28;101449;-91
2022/10/03 01:20:57;;;;;;;10.43;2.15;;;;;;;13.30;68.93;100155.88;5009520;27;97449;-92
2022/10/03 01:23:35;;;;;;;8.02;2.55;;;;;;;13.29;68.50;100151.50;5001528;28;96946;-92
2022/10/03 01:26:04;;;;;;;9.60;2.55;;;;;;;13.24;69.07;100150.88;5005267;28;96882;-91
2022/10/03 01:31:27;;;;;;;10.27;1.92;;;;;;;13.07;69.26;100126.16;5018131;28;101349;-92
2022/10/03 01:34:02;;;;;;;9.23;2.10;;;;;;;13.24;69.07;100150.88;4966035;28;96792;-92
2022/10/03 01:36:38;;;;;;;6.88;2.28;;;;;;;13.20;69.41;100151.91;4998350;28;96815;-92
2022/10/03 01:39:27;;;;;;;11.05;3.28;;;;;;;13.22;69.11;100158.84;4986104;28;101469;-92
2022/10/03 01:42:09;;;;;;;7.60;2.65;;;;;;;13.24;68.94;100153.50;5028607;27;99827;-89
2022/10/03 01:44:45;;;;;;;11.73;2.10;;;;;;;13.26;69.18;100163.06;5010104;28;96988;-92
2022/10/03 01:47:28;;;;;;;14.23;2.28;;;;;;;13.24;69.11;100159.63;4998619;28;97176;-92
2022/10/03 01:50:04;;;;;;;7.95;1.75;;;;;;;13.26;69.17;100155.13;4978756;28;100355;-90
2022/10/03 01:53:03;;;;;;;13.07;2.67;;;;;;;13.25;69.57;100165.75;4983926;28;101222;-92
2022/10/03 01:55:54;;;;;;;7.75;2.10;;;;;;;13.26;68.94;100157.78;4984881;28;96720;-91
2022/10/03 01:58:46;;;;;;;8.60;3.30;;;;;;;13.27;69.10;100158.66;4988499;28;96769;-91
2022/10/03 02:01:38;;;;;;;7.80;2.78;;;;;;;13.19;69.28;100148.44;5000515;28;100274;-92
2022/10/03 02:04:31;;;;;;;9.23;2.08;;;;;;;13.23;69.39;100160.53;4995829;27;98298;-92
2022/10/03 02:07:28;;;;;;;12.10;3.08;;;;;;;13.28;69.05;100163.84;5016054;28;96893;-92
2022/10/03 02:10:08;;;;;;;10.95;2.40;;;;;;;13.17;68.99;100144.16;4980592;28;100948;-92
2022/10/03 02:12:40;;;;;;;11.32;2.42;;;;;;;13.22;69.56;100157.97;4992977;28;101394;-92
2022/10/03 02:15:13;;;;;;;6.38;2.15;;;;;;;13.25;69.11;100156.09;4955089;28;102036;-92
2022/10/03 02:17:46;;;;;;;11.13;2.53;;;;;;;13.29;68.83;100160.28;4985622;28;97070;-91
2022/10/03 02:20:22;;;;;;;8.35;2.38;;;;;;;13.30;69.72;100167.28;4966658;28;97797;-92
2022/10/03 02:22:56;;;;;;;10.35;2.55;;;;;;;13.29;69.34;100172.59;4987092;28;98583;-89
2022/10/03 02:25:51;;;;;;;9.55;2.33;;;;;;;13.28;69.30;100171.75;4974036;28;101153;-91
2022/10/03 02:28:29;;;;;;;8.68;1.90;;;;;;;13.28;69.39;100166.47;4982762;28;97139;-92
2022/10/03 02:31:24;;;;;;;9.55;2.85;;;;;;;13.33;69.48;100179.44;4977130;28;96931;-92
2022/10/03 02:34:08;;;;;;;8.38;2.33;;;;;;;13.31;68.79;100173.38;4987687;28;102742;-88
2022/10/03 02:36:34;;;;;;;13.80;2.55;;;;;;;13.31;68.90;100187.41;4989906;28;101530;-92
2022/10/03 02:39:12;;;;;;;10.07;2.38;;;;;;;13.33;69.48;100190.84;4994469;28;97116;-91
2022/10/03 02:41:57;;;;;;;12.65;2.65;;;;;;;13.24;69.29;100170.16;4986546;28;96834;-91
2022/10/03 02:44:56;;;;;;;12.95;2.95;;;;;;;13.33;69.21;100176.81;4976159;28;101320;-91
2022/10/03 02:47:43;;;;;;;13.60;2.70;;;;;;;13.34;68.84;100189.06;4980138;28;100609;-92
2022/10/03 02:50:08;;;;;;;7.80;1.98;;;;;;;13.37;69.17;100188.91;4967669;28;96785;-91
2022/10/03 02:52:52;;;;;;;12.75;2.38;;;;;;;13.32;69.43;100190.91;4993525;28;96624;-91
2022/10/03 02:55:33;;;;;;;7.32;1.77;;;;;;;13.13;69.37;100162.75;4979760;28;98407;-92
2022/10/03 02:58:10;;;;;;;9.38;2.45;;;;;;;13.21;69.61;100175.59;4972686;28;100462;-92
2022/10/03 03:00:55;;;;;;;9.75;2.58;;;;;;;13.30;69.27;100198.06;4980801;28;96759;-92
2022/10/03 03:03:36;;;;;;;8.88;2.00;;;;;;;13.32;69.24;100204.09;4972724;28;97132;-91
2022/10/03 03:06:16;;;;;;;14.15;3.08;;;;;;;13.31;69.14;100192.69;4979018;28;97678;-90
2022/10/03 03:08:57;;;;;;;7.03;2.08;;;;;;;13.21;69.08;100178.22;4952396;28;100500;-90
2022/10/03 03:11:38;;;;;;;12.40;2.22;;;;;;;13.33;68.88;100198.75;4984533;28;96699;-91
2022/10/03 03:14:39;;;;;;;9.45;2.28;;;;;;;13.24;69.36;100198.31;5001664;28;96905;-91
2022/10/03 03:17:38;;;;;;;13.93;3.33;;;;;;;13.25;69.88;100192.97;4978670;28;101252;-92
2022/10/03 03:20:22;;;;;;;11.10;2.25;;;;;;;13.25;69.29;100192.09;4999566;28;99641;-92
2022/10/03 03:23:16;;;;;;;10.60;2.80;;;;;;;13.26;69.24;100202.59;4994822;28;97056;-92
2022/10/03 03:25:51;;;;;;;12.63;2.63;;;;;;;13.30;69.34;100198.91;4956203;28;97333;-92
2022/10/03 03:28:56;;;;;;;9.07;2.53;;;;;;;13.26;69.35;100205.22;4956084;28;98944;-91
2022/10/03 03:31:28;;;;;;;9.48;2.33;;;;;;;13.26;70.06;100207.88;4948157;28;101602;-92
2022/10/03 03:34:06;;;;;;;9.75;3.25;;;;;;;13.29;69.75;100206.88;4937813;28;96722;-91
2022/10/03 03:36:34;;;;;;;11.40;2.97;;;;;;;13.09;69.63;100177.00;4938371;28;96977;-90
2022/10/03 03:39:09;;;;;;;12.45;2.90;;;;;;;13.29;69.53;100215.66;4905549;28;101982;-92
2022/10/03 03:41:54;;;;;;;13.05;2.80;;;;;;;13.01;69.38;100160.69;4923062;28;101239;-92
2022/10/03 03:44:42;;;;;;;8.98;2.55;;;;;;;13.28;69.96;100220.97;4923258;28;96830;-92
2022/10/03 03:47:37;;;;;;;8.43;2.50;;;;;;;13.28;69.70;100208.66;4930815;28;96977;-91
2022/10/03 03:50:05;;;;;;;13.30;2.72;;;;;;;13.16;69.89;100197.81;4939629;28;98649;-91
2022/10/03 03:52:46;;;;;;;12.30;2.60;;;;;;;13.25;69.70;100214.06;4938585;28;101244;-93
2022/10/03 03:55:35;;;;;;;14.57;2.95;;;;;;;13.28;69.46;100213.94;4928696;28;97175;-92
2022/10/03 03:58:31;;;;;;;10.48;2.55;;;;;;;13.23;69.76;100213.25;4933924;28;97245;-91
2022/10/03 04:01:11;;;;;;;15.13;2.90;;;;;;;13.24;70.26;100224.66;4938065;28;97986;-93
2022/10/03 04:04:08;;;;;;;13.88;2.70;;;;;;;13.22;70.32;100230.00;4990756;28;100956;-91
2022/10/03 04:06:56;;;;;;;14.02;3.28;;;;;;;13.20;70.04;100223.94;5011618;28;97284;-92
2022/10/03 04:09:42;;;;;;;9.90;2.50;;;;;;;13.19;70.95;100235.41;4998477;28;96884;-92
2022/10/03 04:12:39;;;;;;;12.23;2.25;;;;;;;13.17;70.65;100228.50;4993488;28;101398;-92
2022/10/03 04:15:30;;;;;;;9.02;2.42;;;;;;;13.19;70.55;100231.94;4986315;28;97947;-92
2022/10/03 04:21:02;;;;;;;11.60;2.58;;;;;;;13.16;70.28;100235.56;5010622;28;97040;-92
2022/10/03 04:23:36;;;;;;;13.25;2.60;;;;;;;13.18;70.33;100227.56;4997982;28;98190;-92
2022/10/03 04:26:15;;;;;;;7.07;1.92;;;;;;;13.18;70.29;100224.94;4997160;28;101058;-92
2022/10/03 04:28:50;;;;;;;9.35;2.33;;;;;;;13.05;69.96;100212.31;4997026;28;97275;-93
2022/10/03 04:31:40;;;;;;;12.20;2.88;;;;;;;13.16;69.94;100226.81;5019017;28;96737;-92
2022/10/03 04:34:33;;;;;;;10.32;2.80;;;;;;;13.12;69.41;100215.56;5023876;28;101461;-92
2022/10/03 04:37:24;;;;;;;9.63;2.50;;;;;;;13.08;69.92;100217.44;5012614;28;98000;-92
2022/10/03 04:40:03;;;;;;;9.37;2.43;;;;;;;13.14;69.38;100217.16;4975946;28;96937;-91
2022/10/03 04:42:57;;;;;;;8.73;2.47;;;;;;;13.17;69.30;100218.81;4992657;28;97007;-91
2022/10/03 04:46:02;;;;;;;10.85;2.30;;;;;;;13.09;69.97;100213.91;5011906;28;100413;-91
2022/10/03 04:48:37;;;;;;;8.70;2.92;;;;;;;13.16;69.01;100218.88;4985636;28;100949;-92
2022/10/03 04:51:18;;;;;;;8.60;3.58;;;;;;;13.19;69.39;100213.47;5003278;28;96898;-91
2022/10/03 04:53:52;;;;;;;9.45;2.42;;;;;;;13.20;68.98;100217.81;4998192;28;97254;-92
2022/10/03 04:56:44;;;;;;;10.63;2.28;;;;;;;13.17;69.28;100215.31;4981711;28;100503;-92
2022/10/03 04:59:26;;;;;;;;;;;;;;;13.15;69.40;100215.41;4998563;28;97327;-89
2022/10/03 05:01:56;;;;;;;12.98;2.58;;;;;;;13.19;69.04;100216.97;4973939;28;96795;-91
2022/10/03 05:04:43;;;;;;;10.82;2.20;;;;;;;13.22;69.08;100226.50;4995346;28;96958;-91
2022/10/03 05:07:46;;;;;;;13.77;2.85;;;;;;;13.21;69.17;100214.28;4994691;28;101206;-87
2022/10/03 05:10:45;;;;;;;11.18;2.17;;;;;;;13.18;68.95;100214.38;4986414;28;100278;-88
2022/10/03 05:13:33;;;;;;;12.43;3.03;;;;;;;13.20;68.78;100218.66;5025405;28;97383;-85
2022/10/03 05:16:03;;;;;;;10.90;2.58;;;;;;;13.17;69.46;100216.16;5006758;28;97082;-86
2022/10/03 05:18:44;;;;;;;13.80;2.83;;;;;;;13.17;69.90;100217.97;5014657;28;101849;-88
2022/10/03 05:21:20;;;;;;;11.98;3.15;;;;;;;13.18;69.90;100219.66;5002778;28;99474;-86
2022/10/03 05:24:06;;;;;;;11.82;2.53;;;;;;;13.16;70.05;100221.53;4980859;28;97017;-87
2022/10/03 05:26:34;;;;;;;10.93;2.70;;;;;;;13.01;70.33;100202.84;4992473;28;97042;-85
2022/10/03 05:29:14;;;;;;;13.65;3.40;;;;;;;13.10;70.89;100231.41;5003422;28;100482;-84
2022/10/03 05:32:14;;;;;;;12.30;2.47;;;;;;;13.10;70.66;100220.88;4973265;28;101487;-88
2022/10/03 05:34:57;;;;;;;13.85;3.17;;;;;;;13.16;70.14;100229.44;4995329;28;97343;-87
2022/10/03 05:37:45;;;;;;;12.57;2.50;;;;;;;13.15;70.66;100228.59;4997012;28;96823;-87
2022/10/03 05:40:23;;;;;;;12.10;3.05;;;;;;;13.13;70.34;100222.53;4991022;28;101502;-91
2022/10/03 05:42:49;;;;;;;12.45;2.60;;;;;;;13.18;70.23;100225.81;4994309;28;98380;-85
2022/10/03 05:45:42;;;;;;;9.85;2.53;;;;;;;13.20;69.80;100231.00;5006295;28;99759;-91
2022/10/03 05:48:30;;;;;;;13.25;3.13;;;;;;;13.23;69.54;100223.78;5005712;28;96917;-93
2022/10/03 05:51:14;;;;;;;11.20;2.60;;;;;;;13.22;69.48;100232.63;4995508;28;98009;-90
2022/10/03 05:54:05;;;;;;;8.68;2.60;;;;;;;13.24;69.69;100236.06;4997749;28;102207;-92
2022/10/03 05:57:09;;;;;;;15.60;3.22;;;;;;;13.25;69.66;100229.00;4979686;28;96795;-92
2022/10/03 05:59:50;;;;;;;8.07;2.95;;;;;;;13.23;69.32;100239.59;4990349;28;96842;-92
2022/10/03 06:03:01;;;;;;;9.75;2.65;;;;;;;13.26;69.94;100241.28;4994298;28;100940;-93
2022/10/03 06:05:35;;;;;;;9.70;3.15;;;;;;;13.18;69.97;100228.44;4964193;28;100353;-94
2022/10/03 06:08:11;;;;;;;12.73;2.35;;;;;;;13.22;70.59;100244.97;5014018;28;97355;-95
2022/10/03 06:10:54;;;;;;;10.77;3.15;;;;;;;13.23;70.99;100246.66;4996065;28;97059;-94
2022/10/03 06:13:29;;;;;;;7.05;2.17;;;;;;;13.22;70.69;100252.88;4988190;28;101496;-92
2022/10/03 06:16:23;;;;;;;11.68;3.40;;;;;;;13.26;71.70;100247.41;4999696;28;100407;-93
2022/10/03 06:19:16;;;;;;;8.43;2.95;;;;;;;13.29;70.75;100257.84;5014154;28;96951;-94
2022/10/03 06:22:14;;;;;;;14.00;5.72;;;;;;;13.33;71.64;100261.19;4997216;27;96875;-93
2022/10/03 06:25:13;;;;;;;19.95;7.68;;;;;;;13.13;71.69;100217.25;4992998;28;99942;-94
2022/10/03 06:28:11;;;;;;;7.60;2.90;;;;;;;13.39;71.35;100258.25;5009916;28;97313;-93
2022/10/03 06:30:51;;;;;;;10.50;2.97;;;;;;;13.23;71.61;100242.25;4994892;28;97092;-93
2022/10/03 06:33:46;;;;;;;7.97;2.38;;;;;;;13.30;71.83;100256.91;4995688;28;96819;-92
2022/10/03 06:36:18;;;;;;;8.85;2.03;;;;;;;13.27;71.16;100246.50;4991207;28;101054;-86
2022/10/03 06:39:21;;;;;;;10.25;2.75;;;;;;;13.41;71.44;100263.44;4981548;28;99983;-91
2022/10/03 06:42:24;;;;;;;8.07;2.13;;;;;;;13.34;70.96;100263.72;4991360;27;97277;-91
2022/10/03 06:45:00;;;;;;;10.77;2.50;;;;;;;13.23;71.73;100247.50;4998313;28;97540;-91
2022/10/03 06:47:40;;;;;;;6.93;1.98;;;;;;;13.36;71.45;100275.06;5013993;28;97447;-90
2022/10/03 06:50:28;;;;;;;6.78;2.50;;;;;;;13.31;71.76;100257.75;5009393;28;101505;-91
2022/10/03 06:53:11;;;;;;;13.23;3.53;;;;;;;13.32;71.57;100275.25;5011603;28;96753;-93
2022/10/03 06:55:46;;;;;;;10.27;2.72;;;;;;;13.27;71.41;100256.19;4998003;28;97270;-92
2022/10/03 06:58:49;;;;;;;8.38;2.60;;;;;;;13.43;71.20;100278.25;4999620;28;100366;-92
2022/10/03 07:01:27;;;;;;;7.88;2.78;;;;;;;13.41;71.30;100287.16;5009050;28;101538;-91
2022/10/03 07:04:04;;;;;;;7.57;2.03;;;;;;;13.37;71.61;100273.28;4992721;28;97108;-86
2022/10/03 07:07:03;;;;;;;6.88;2.17;;;;;;;13.47;71.72;100279.00;4992208;28;96856;-91
2022/10/03 07:10:06;;;;;;;7.30;1.90;;;;;;;13.51;71.47;100283.19;4994145;28;101676;-90
2022/10/03 07:12:51;;;;;;;6.95;1.80;;;;;;;13.42;71.14;100270.44;4994448;28;101322;-91
2022/10/03 07:15:43;;;;;;;9.80;2.88;;;;;;;13.48;71.27;100292.09;4989103;28;97185;-91
2022/10/03 07:18:17;;;;;;;;;;;;;;;13.53;71.36;100284.84;4981904;28;97179;-92
2022/10/03 07:21:13;;;;;;;4.00;1.67;;;;;;;13.49;71.03;100291.16;4993220;28;101548;-90
2022/10/03 07:24:15;;;;;;;6.18;1.95;;;;;;;13.59;70.87;100294.25;5005808;28;99689;-92
2022/10/03 07:27:02;;;;;;;5.75;1.73;;;;;;;13.80;70.28;100268.63;5001881;28;97184;-92
2022/10/03 07:29:54;;;;;;;11.23;1.80;;;;;;;13.87;69.85;100282.34;5003430;28;96979;-90
2022/10/03 07:33:05;;;;;;;3.97;1.40;;;;;;;13.87;70.26;100285.84;4988528;28;101836;-87
2022/10/03 07:38:59;;;;;;;7.33;1.80;;;;;;;13.79;70.75;100294.16;5003377;28;97127;-84
2022/10/03 07:41:50;;;;;;;5.93;1.70;;;;;;;13.79;70.77;100301.22;4978514;28;96806;-90
2022/10/03 07:44:28;;;;;;;7.63;1.90;;;;;;;13.83;70.91;100313.31;5029131;28;97637;-92
2022/10/03 07:47:12;;;;;;;5.60;1.60;;;;;;;13.86;71.10;100307.06;5027776;27;97454;-92
2022/10/03 07:49:56;;;;;;;7.95;1.60;;;;;;;13.87;71.29;100309.59;5010963;27;97227;-88
2022/10/03 07:52:33;;;;;;;8.27;2.08;;;;;;;13.69;71.47;100284.09;4996255;28;97029;-88
2022/10/03 07:55:29;;;;;;;7.10;2.13;;;;;;;13.82;71.54;100316.91;5001613;28;101419;-88
2022/10/03 07:58:01;;;;;;;4.47;1.70;;;;;;;13.67;71.25;100299.13;4994360;28;97474;-88
2022/10/03 08:00:28;;;;;;;;;;;;;;;13.72;71.67;100318.25;4990523;28;97788;-88
2022/10/03 08:03:13;;;;;;;5.03;1.30;;;;;;;13.66;72.05;100337.00;5000788;28;98053;-88
2022/10/03 08:05:53;;;;;;;3.28;1.25;;;;;;;13.71;72.23;100337.66;4997340;27;101666;-88
2022/10/03 08:08:37;;;;;;;4.05;1.50;;;;;;;13.72;71.81;100318.25;4990327;28;101304;-88
2022/10/03 08:11:24;;;;;;;4.88;1.52;;;;;;;14.00;72.14;100331.84;5011960;27;97003;-88
2022/10/03 08:13:59;;;;;;;4.95;1.67;;;;;;;14.09;71.41;100305.94;5013974;28;97131;-87
2022/10/03 08:16:31;;;;;;;3.47;1.38;;;;;;;14.38;70.83;100337.03;5005654;28;100661;-87
2022/10/03 08:19:08;;;;;;;;;;;;;;;14.38;70.21;100342.31;4995571;28;101582;-86
2022/10/03 08:21:59;;;;;;;5.25;1.95;;;;;;;14.36;70.22;100343.31;5000753;28;96987;-87
2022/10/03 08:25:02;;;;;;;5.28;1.52;;;;;;;14.59;70.38;100343.06;4995799;28;97532;-89
2022/10/03 08:27:31;;;;;;;6.43;1.67;;;;;;;14.75;69.57;100345.81;5005591;28;98501;-89
2022/10/03 08:30:08;;;;;;;7.40;1.90;;;;;;;14.31;70.13;100318.91;4987500;28;100985;-88
2022/10/03 08:32:55;;;;;;;6.72;2.00;;;;;;;14.30;70.77;100322.50;4986663;28;97241;-86
2022/10/03 08:35:25;;;;;;;4.22;1.80;;;;;;;14.29;70.58;100350.69;4987704;28;97175;-87
2022/10/03 08:38:06;;;;;;;5.60;1.70;;;;;;;14.24;70.60;100342.13;5003945;28;97985;-86
2022/10/03 08:40:43;;;;;;;4.00;1.30;;;;;;;14.29;70.47;100340.13;5018942;28;98025;-90
2022/10/03 08:43:38;;;;;;;4.82;1.20;;;;;;;14.25;70.46;100350.00;4989777;27;97512;-88
2022/10/03 08:46:10;;;;;;;4.60;1.25;;;;;;;14.27;70.27;100352.56;4990099;28;96942;-87
2022/10/03 08:49:12;;;;;;;5.18;1.85;;;;;;;14.18;70.16;100353.00;5011757;28;100752;-86
2022/10/03 08:51:41;;;;;;;7.90;2.05;;;;;;;14.12;70.21;100353.31;5008570;28;100359;-89
2022/10/03 08:54:28;;;;;;;5.28;1.98;;;;;;;13.96;70.23;100335.56;4999937;28;97979;-87
2022/10/03 08:57:09;;;;;;;5.88;1.98;;;;;;;14.08;70.52;100362.28;4994286;28;97697;-88
2022/10/03 08:59:49;;;;;;;6.70;1.70;;;;;;;13.98;70.06;100349.53;5021939;27;98156;-91
2022/10/03 09:02:59;;;;;;;4.88;1.45;;;;;;;14.06;70.35;100362.38;5016098;28;98071;-90
2022/10/03 09:05:39;;;;;;;5.68;1.70;;;;;;;14.15;70.56;100369.84;4948259;28;97138;-88
2022/10/03 09:08:24;;;;;;;8.55;1.98;;;;;;;14.18;69.99;100366.19;4951242;28;97640;-90
2022/10/03 09:11:08;;;;;;;5.38;1.20;;;;;;;14.20;70.40;100370.47;4947156;28;98957;-89
2022/10/03 09:14:04;;;;;;;7.15;2.03;;;;;;;14.12;70.10;100359.44;4941952;28;100346;-88
2022/10/03 09:17:02;;;;;;;4.13;1.50;;;;;;;14.26;70.25;100361.41;4920864;28;96954;-89
2022/10/03 09:19:37;;;;;;;5.25;1.40;;;;;;;14.43;69.55;100374.66;4921243;28;97360;-89
2022/10/03 09:22:28;;;;;;;9.35;1.95;;;;;;;14.66;69.33;100365.63;4944977;28;101623;-86
2022/10/03 09:25:25;;;;;;;6.70;1.73;;;;;;;15.23;68.07;100354.75;4961402;28;98404;-86
2022/10/03 09:28:00;;;;;;;9.73;1.60;;;;;;;15.61;66.71;100368.56;4940811;28;97119;-86
2022/10/03 09:30:49;;;;;;;5.85;1.30;;;;;;;15.62;65.77;100370.28;4925193;28;97126;-86
2022/10/03 09:33:42;;;;;;;8.38;1.75;;;;;;;15.47;66.33;100368.44;4968748;28;101971;-84
2022/10/03 09:36:14;;;;;;;4.63;1.30;;;;;;;15.32;66.71;100371.91;4993773;27;97412;-89
2022/10/03 09:39:14;;;;;;;3.03;1.15;;;;;;;15.12;66.60;100357.09;4988552;28;97240;-91
2022/10/03 09:41:54;;;;;;;5.75;1.73;;;;;;;15.13;66.72;100379.97;4990040;27;96844;-94
2022/10/03 09:44:29;;;;;;;6.47;1.23;;;;;;;15.18;66.89;100380.56;4984089;28;101151;-92
2022/10/03 09:47:22;;;;;;;4.15;1.73;;;;;;;15.22;66.61;100383.94;4992202;28;99958;-92
2022/10/03 09:50:21;;;;;;;5.82;1.60;;;;;;;15.16;66.22;100367.44;5002590;28;98132;-93
2022/10/03 09:53:12;;;;;;;5.90;1.35;;;;;;;15.26;66.29;100383.69;5007477;28;97505;-93
2022/10/03 09:55:44;;;;;;;11.57;2.50;;;;;;;15.34;66.03;100376.19;4987478;28;101782;-91
2022/10/03 09:58:29;;;;;;;3.20;1.52;;;;;;;15.26;65.65;100351.94;4999570;28;101258;-91
2022/10/03 10:01:13;;;;;;;4.22;1.30;;;;;;;15.49;65.41;100374.53;4986473;28;96805;-92
2022/10/03 10:03:48;;;;;;;7.35;1.65;;;;;;;16.50;63.51;100384.81;5005088;28;97822;-93
2022/10/03 10:06:46;;;;;;;6.43;1.10;;;;;;;17.13;61.42;100367.03;4991121;27;101316;-93
2022/10/03 10:09:57;;;;;;;8.63;2.08;;;;;;;16.71;61.36;100379.22;4988699;28;101624;-94
2022/10/03 10:12:58;;;;;;;5.77;1.60;;;;;;;16.42;62.50;100384.41;4966450;27;97598;-93
2022/10/03 10:15:27;;;;;;;3.33;1.50;;;;;;;16.90;61.65;100379.88;4978083;28;97519;-91
2022/10/03 10:18:03;;;;;;;4.40;1.40;;;;;;;16.97;60.90;100361.81;5012483;28;98576;-94
2022/10/03 10:20:55;;;;;;;9.15;2.03;;;;;;;16.80;60.53;100391.13;4986746;28;101115;-94
2022/10/03 10:23:48;;;;;;;4.57;1.33;;;;;;;16.56;60.91;100388.91;4989900;28;96854;-95
2022/10/03 10:26:31;;;;;;;4.60;1.40;;;;;;;16.61;60.18;100386.88;4982389;28;97978;-89
2022/10/03 10:29:03;;;;;;;7.63;1.60;;;;;;;16.27;61.21;100399.38;4995217;28;101587;-89
2022/10/03 10:32:07;;;;;;;6.22;1.88;;;;;;;16.10;62.06;100401.28;5004480;28;99915;-90
2022/10/03 10:34:59;;;;;;;2.85;1.20;;;;;;;16.00;61.92;100390.34;4988342;28;97041;-90
2022/10/03 10:37:53;;;;;;;6.40;1.75;;;;;;;15.77;63.08;100389.81;5017011;28;97114;-88
2022/10/03 10:40:31;;;;;;;5.60;1.80;;;;;;;15.69;62.89;100391.16;4984603;28;100638;-89
2022/10/03 10:43:19;;;;;;;4.60;1.85;;;;;;;15.75;62.71;100390.81;5008557;27;98565;-89
2022/10/03 10:45:54;;;;;;;4.63;1.50;;;;;;;15.83;62.77;100383.34;5017243;28;96877;-87
2022/10/03 10:49:00;;;;;;;8.82;2.17;;;;;;;15.60;63.52;100376.59;5003380;28;97226;-87
2022/10/03 10:51:46;;;;;;;2.95;1.45;;;;;;;15.51;63.44;100366.53;4923371;28;101410;-88
2022/10/03 10:54:24;;;;;;;7.88;1.88;;;;;;;15.48;63.47;100377.28;4890476;28;101592;-89
2022/10/03 10:57:14;;;;;;;6.25;1.55;;;;;;;15.47;63.66;100378.19;4919492;28;96781;-87
2022/10/03 11:00:09;;;;;;;7.00;2.78;;;;;;;15.38;64.06;100377.72;4908389;28;97001;-88
2022/10/03 11:02:57;;;;;;;5.97;1.63;;;;;;;15.26;64.82;100399.53;4930395;28;101527;-95
2022/10/03 11:05:39;;;;;;;8.85;1.65;;;;;;;14.97;66.07;100371.13;4916599;28;101088;-95
2022/10/03 11:08:26;;;;;;;9.35;1.73;;;;;;;15.06;66.75;100403.22;4921051;28;97853;-93
2022/10/03 11:11:06;;;;;;;10.57;3.55;;;;;;;14.98;67.89;100402.78;4935119;28;97491;-94
2022/10/03 11:14:09;;;;;;;5.53;2.47;;;;;;;14.98;68.03;100402.78;4914128;28;99008;-94
2022/10/03 11:16:56;;;;;;;8.63;2.47;;;;;;;15.06;68.15;100397.94;4919811;28;101767;-94
2022/10/03 11:19:43;;;;;;;11.30;2.92;;;;;;;15.33;67.10;100395.66;4919624;28;98180;-95
2022/10/03 11:22:40;;;;;;;7.95;2.28;;;;;;;15.51;67.24;100398.28;4954107;28;97071;-91
2022/10/03 11:25:30;;;;;;;10.70;2.13;;;;;;;15.43;67.61;100403.94;4996666;28;101411;-94
2022/10/03 11:28:27;;;;;;;5.80;1.92;;;;;;;15.35;67.43;100401.69;5015591;27;97774;-94
2022/10/03 11:31:11;;;;;;;3.63;1.40;;;;;;;15.27;68.41;100403.03;5011843;28;96867;-94
2022/10/03 11:33:58;;;;;;;9.98;2.47;;;;;;;15.16;68.53;100406.25;5018049;28;96889;-94
2022/10/03 11:36:57;;;;;;;6.90;1.92;;;;;;;15.03;68.50;100411.31;4992017;28;101843;-95
2022/10/03 11:39:35;;;;;;;9.25;2.58;;;;;;;14.92;69.17;100406.59;4999788;28;101801;-96
2022/10/03 11:42:39;;;;;;;6.18;1.52;;;;;;;14.89;69.33;100411.16;5009740;27;97016;-91
2022/10/03 11:45:13;;;;;;;5.45;1.60;;;;;;;14.89;69.07;100419.06;5001264;28;96997;-96
2022/10/03 11:48:05;;;;;;;3.75;1.52;;;;;;;14.83;70.07;100420.22;4994748;27;100331;-93
2022/10/03 11:50:52;;;;;;;5.93;1.85;;;;;;;14.80;70.85;100411.63;5009861;28;100299;-94
2022/10/03 11:53:42;;;;;;;5.63;1.70;;;;;;;14.83;70.71;100412.31;4997514;28;97273;-91
2022/10/03 11:56:29;;;;;;;8.45;2.17;;;;;;;14.76;71.13;100415.34;4996824;28;97215;-89
2022/10/03 11:59:14;;;;;;;7.15;2.80;;;;;;;14.67;71.47;100412.22;5014658;28;97741;-87
2022/10/03 12:01:51;;;;;;;9.75;2.40;;;;;;;14.69;71.23;100410.38;5002976;27;96933;-90
2022/10/03 12:04:54;;;;;;;10.88;2.47;;;;;;;14.63;71.53;100410.69;4976859;28;96815;-93
2022/10/03 12:11:05;;;;;;;10.55;2.25;;;;;;;14.38;72.09;100402.22;5019490;28;101315;-93
2022/10/03 12:13:45;;;;;;;5.82;2.30;;;;;;;14.48;72.36;100409.59;5025228;28;100411;-89
2022/10/03 12:16:29;;;;;;;12.27;3.30;;;;;;;14.48;71.82;100404.31;5004085;28;96813;-92
2022/10/03 12:19:16;;;;;;;9.43;4.03;;;;;;;14.47;72.52;100412.31;4980079;28;97233;-94
2022/10/03 12:21:49;;;;;;;6.03;2.50;;;;;;;14.40;72.36;100435.53;4969565;28;101380;-93
2022/10/03 12:24:26;;;;;;;7.25;2.13;;;;;;;14.31;73.03;100392.84;4980381;28;100211;-91
2022/10/03 12:27:03;;;;;;;7.38;1.88;;;;;;;14.48;72.60;100414.88;4979969;28;97230;-92
2022/10/03 12:29:33;;;;;;;6.47;2.10;;;;;;;14.63;72.33;100429.19;4969416;28;96953;-95
2022/10/03 12:32:29;;;;;;;5.72;1.75;;;;;;;14.65;71.75;100426.44;4985037;28;101258;-91
2022/10/03 12:34:59;;;;;;;5.65;2.58;;;;;;;14.68;72.63;100428.94;4989600;28;101540;-90
2022/10/03 12:37:42;;;;;;;13.68;2.45;;;;;;;14.67;73.02;100441.28;4993308;28;96709;-92
2022/10/03 12:40:14;;;;;;;6.88;2.38;;;;;;;14.80;72.95;100432.75;5015085;27;97174;-92
2022/10/03 12:43:07;;;;;;;7.80;2.10;;;;;;;15.00;72.55;100429.13;5017202;28;97531;-89
2022/10/03 12:45:44;;;;;;;11.38;2.00;;;;;;;15.07;72.45;100431.38;4992112;28;98472;-90
2022/10/03 12:48:44;;;;;;;8.90;2.50;;;;;;;15.15;72.23;100436.25;4983049;28;97097;-90
2022/10/03 12:51:34;;;;;;;7.85;2.53;;;;;;;15.11;71.87;100432.06;4969133;28;96888;-87
2022/10/03 12:54:31;;;;;;;8.15;2.50;;;;;;;15.01;73.05;100422.88;4980413;28;101348;-88
2022/10/03 12:57:21;;;;;;;7.40;1.92;;;;;;;15.05;73.17;100430.59;5026465;28;100299;-87